sensor_id;sensor_type;location;lat;lon;timestamp;P1;durP1;ratioP1;P2;durP2;ratioP2
45322;SDS011;31382;50.200;8.674;2023-03-01T00:02:16;14.68;;;7.05;;
45322;SDS011;31382;50.200;8.674;2023-03-01T00:07:17;14.75;;;7.80;;
45322;SDS011;31382;50.200;8.674;2023-03-01T00:12:19;14.85;;;7.35;;
45322;SDS011;31382;50.200;8.674;2023-03-01T00:17:20;16.92;;;7.90;;
45322;SDS011;31382;50.200;8.674;2023-03-01T00:22:22;14.05;;;7.75;;
45322;SDS011;31382;50.200;8.674;2023-03-01T00:27:24;12.73;;;7.40;;
45322;SDS011;31382;50.200;8.674;2023-03-01T00:32:25;13.93;;;8.32;;
45322;SDS011;31382;50.200;8.674;2023-03-01T00:37:27;13.55;;;7.63;;
45322;SDS011;31382;50.200;8.674;2023-03-01T00:42:28;12.20;;;7.78;;
45322;SDS011;31382;50.200;8.674;2023-03-01T00:47:30;13.43;;;7.82;;
45322;SDS011;31382;50.200;8.674;2023-03-01T00:52:31;14.98;;;8.20;;
45322;SDS011;31382;50.200;8.674;2023-03-01T00:57:32;16.88;;;8.68;;
45322;SDS011;31382;50.200;8.674;2023-03-01T01:02:34;13.20;;;7.18;;
45322;SDS011;31382;50.200;8.674;2023-03-01T01:07:36;14.68;;;8.07;;
45322;SDS011;31382;50.200;8.674;2023-03-01T01:12:38;15.10;;;7.85;;
45322;SDS011;31382;50.200;8.674;2023-03-01T01:17:39;15.65;;;7.90;;
45322;SDS011;31382;50.200;8.674;2023-03-01T01:22:41;15.85;;;7.93;;
45322;SDS011;31382;50.200;8.674;2023-03-01T01:27:43;16.25;;;8.60;;
45322;SDS011;31382;50.200;8.674;2023-03-01T01:32:44;16.17;;;8.18;;
45322;SDS011;31382;50.200;8.674;2023-03-01T01:37:46;18.42;;;9.32;;
45322;SDS011;31382;50.200;8.674;2023-03-01T01:42:47;15.10;;;7.90;;
45322;SDS011;31382;50.200;8.674;2023-03-01T01:47:49;14.35;;;8.50;;
45322;SDS011;31382;50.200;8.674;2023-03-01T01:52:51;18.17;;;8.48;;
45322;SDS011;31382;50.200;8.674;2023-03-01T01:57:55;18.08;;;8.35;;
45322;SDS011;31382;50.200;8.674;2023-03-01T02:03:02;16.98;;;8.70;;
45322;SDS011;31382;50.200;8.674;2023-03-01T02:08:06;20.25;;;8.93;;
45322;SDS011;31382;50.200;8.674;2023-03-01T02:13:09;15.32;;;8.88;;
45322;SDS011;31382;50.200;8.674;2023-03-01T02:18:12;13.32;;;7.70;;
45322;SDS011;31382;50.200;8.674;2023-03-01T02:23:17;17.63;;;7.97;;
45322;SDS011;31382;50.200;8.674;2023-03-01T02:28:23;14.98;;;8.02;;
45322;SDS011;31382;50.200;8.674;2023-03-01T02:38:28;16.92;;;7.95;;
45322;SDS011;31382;50.200;8.674;2023-03-01T02:43:31;20.20;;;8.77;;
45322;SDS011;31382;50.200;8.674;2023-03-01T02:48:41;18.95;;;9.10;;
45322;SDS011;31382;50.200;8.674;2023-03-01T02:59:26;12.90;;;8.35;;
45322;SDS011;31382;50.200;8.674;2023-03-01T03:04:31;11.83;;;7.10;;
45322;SDS011;31382;50.200;8.674;2023-03-01T03:09:32;16.63;;;9.00;;
45322;SDS011;31382;50.200;8.674;2023-03-01T03:14:34;16.52;;;9.00;;
45322;SDS011;31382;50.200;8.674;2023-03-01T03:19:36;16.77;;;8.27;;
45322;SDS011;31382;50.200;8.674;2023-03-01T03:24:37;16.73;;;9.38;;
45322;SDS011;31382;50.200;8.674;2023-03-01T03:29:38;16.33;;;9.30;;
45322;SDS011;31382;50.200;8.674;2023-03-01T03:34:40;18.40;;;9.40;;
45322;SDS011;31382;50.200;8.674;2023-03-01T03:39:41;19.08;;;10.10;;
45322;SDS011;31382;50.200;8.674;2023-03-01T03:44:43;27.48;;;11.35;;
45322;SDS011;31382;50.200;8.674;2023-03-01T03:49:44;20.75;;;9.98;;
45322;SDS011;31382;50.200;8.674;2023-03-01T03:54:45;18.58;;;9.88;;
45322;SDS011;31382;50.200;8.674;2023-03-01T03:59:47;19.88;;;9.27;;
45322;SDS011;31382;50.200;8.674;2023-03-01T04:04:48;15.65;;;8.40;;
45322;SDS011;31382;50.200;8.674;2023-03-01T04:09:53;17.70;;;9.55;;
45322;SDS011;31382;50.200;8.674;2023-03-01T04:14:54;20.10;;;9.82;;
45322;SDS011;31382;50.200;8.674;2023-03-01T04:19:55;19.20;;;9.25;;
45322;SDS011;31382;50.200;8.674;2023-03-01T04:24:57;21.23;;;8.90;;
45322;SDS011;31382;50.200;8.674;2023-03-01T04:29:59;19.05;;;9.90;;
45322;SDS011;31382;50.200;8.674;2023-03-01T04:35:01;20.95;;;9.30;;
45322;SDS011;31382;50.200;8.674;2023-03-01T04:40:02;18.63;;;9.65;;
45322;SDS011;31382;50.200;8.674;2023-03-01T04:45:17;21.05;;;10.25;;
45322;SDS011;31382;50.200;8.674;2023-03-01T04:50:19;22.58;;;10.48;;
45322;SDS011;31382;50.200;8.674;2023-03-01T04:55:21;16.52;;;8.40;;
45322;SDS011;31382;50.200;8.674;2023-03-01T05:00:22;17.60;;;9.65;;
45322;SDS011;31382;50.200;8.674;2023-03-01T05:05:35;21.50;;;9.23;;
45322;SDS011;31382;50.200;8.674;2023-03-01T05:10:37;17.23;;;8.65;;
45322;SDS011;31382;50.200;8.674;2023-03-01T05:15:39;16.70;;;8.68;;
45322;SDS011;31382;50.200;8.674;2023-03-01T05:20:41;17.45;;;8.98;;
45322;SDS011;31382;50.200;8.674;2023-03-01T05:25:42;18.73;;;8.45;;
45322;SDS011;31382;50.200;8.674;2023-03-01T05:30:44;20.40;;;9.15;;
45322;SDS011;31382;50.200;8.674;2023-03-01T05:35:46;19.75;;;9.18;;
45322;SDS011;31382;50.200;8.674;2023-03-01T05:40:49;16.98;;;9.02;;
45322;SDS011;31382;50.200;8.674;2023-03-01T05:45:51;21.15;;;8.70;;
45322;SDS011;31382;50.200;8.674;2023-03-01T05:50:52;24.48;;;10.40;;
45322;SDS011;31382;50.200;8.674;2023-03-01T05:55:53;20.65;;;10.32;;
45322;SDS011;31382;50.200;8.674;2023-03-01T06:00:55;23.27;;;9.25;;
45322;SDS011;31382;50.200;8.674;2023-03-01T06:05:57;20.92;;;9.38;;
45322;SDS011;31382;50.200;8.674;2023-03-01T06:10:59;22.75;;;10.38;;
45322;SDS011;31382;50.200;8.674;2023-03-01T06:16:00;18.88;;;9.18;;
45322;SDS011;31382;50.200;8.674;2023-03-01T06:21:05;18.83;;;9.38;;
45322;SDS011;31382;50.200;8.674;2023-03-01T06:26:08;19.83;;;9.70;;
45322;SDS011;31382;50.200;8.674;2023-03-01T06:31:09;16.40;;;8.95;;
45322;SDS011;31382;50.200;8.674;2023-03-01T06:36:11;19.35;;;8.50;;
45322;SDS011;31382;50.200;8.674;2023-03-01T06:41:12;24.55;;;10.65;;
45322;SDS011;31382;50.200;8.674;2023-03-01T06:46:14;19.35;;;10.73;;
45322;SDS011;31382;50.200;8.674;2023-03-01T06:51:15;19.95;;;10.02;;
45322;SDS011;31382;50.200;8.674;2023-03-01T06:56:17;20.17;;;10.00;;
45322;SDS011;31382;50.200;8.674;2023-03-01T07:01:18;20.90;;;9.68;;
45322;SDS011;31382;50.200;8.674;2023-03-01T07:06:20;18.00;;;9.18;;
45322;SDS011;31382;50.200;8.674;2023-03-01T07:11:22;16.77;;;9.05;;
45322;SDS011;31382;50.200;8.674;2023-03-01T07:16:24;20.35;;;8.93;;
45322;SDS011;31382;50.200;8.674;2023-03-01T07:21:25;20.88;;;9.25;;
45322;SDS011;31382;50.200;8.674;2023-03-01T07:26:27;15.93;;;8.93;;
45322;SDS011;31382;50.200;8.674;2023-03-01T07:31:28;19.60;;;9.73;;
45322;SDS011;31382;50.200;8.674;2023-03-01T07:36:30;21.20;;;10.10;;
45322;SDS011;31382;50.200;8.674;2023-03-01T07:41:32;21.08;;;10.10;;
45322;SDS011;31382;50.200;8.674;2023-03-01T07:46:33;26.45;;;10.50;;
45322;SDS011;31382;50.200;8.674;2023-03-01T07:51:34;19.27;;;9.70;;
45322;SDS011;31382;50.200;8.674;2023-03-01T07:56:36;18.83;;;10.13;;
45322;SDS011;31382;50.200;8.674;2023-03-01T08:01:37;21.55;;;9.98;;
45322;SDS011;31382;50.200;8.674;2023-03-01T08:06:39;20.65;;;10.23;;
45322;SDS011;31382;50.200;8.674;2023-03-01T08:11:40;21.70;;;10.73;;
45322;SDS011;31382;50.200;8.674;2023-03-01T08:16:42;18.63;;;9.73;;
45322;SDS011;31382;50.200;8.674;2023-03-01T08:21:43;20.42;;;11.43;;
45322;SDS011;31382;50.200;8.674;2023-03-01T08:26:45;20.80;;;10.18;;
45322;SDS011;31382;50.200;8.674;2023-03-01T08:31:47;23.77;;;10.75;;
45322;SDS011;31382;50.200;8.674;2023-03-01T08:36:49;27.55;;;10.52;;
45322;SDS011;31382;50.200;8.674;2023-03-01T08:41:52;19.45;;;8.75;;
45322;SDS011;31382;50.200;8.674;2023-03-01T08:46:54;22.35;;;11.30;;
45322;SDS011;31382;50.200;8.674;2023-03-01T08:51:56;19.60;;;9.15;;
45322;SDS011;31382;50.200;8.674;2023-03-01T08:56:58;19.88;;;10.23;;
45322;SDS011;31382;50.200;8.674;2023-03-01T09:02:04;16.23;;;9.43;;
45322;SDS011;31382;50.200;8.674;2023-03-01T09:07:06;18.80;;;9.88;;
45322;SDS011;31382;50.200;8.674;2023-03-01T09:12:08;19.52;;;9.35;;
45322;SDS011;31382;50.200;8.674;2023-03-01T09:17:09;19.15;;;9.38;;
45322;SDS011;31382;50.200;8.674;2023-03-01T09:22:11;19.65;;;10.20;;
45322;SDS011;31382;50.200;8.674;2023-03-01T09:27:12;17.05;;;10.25;;
45322;SDS011;31382;50.200;8.674;2023-03-01T09:32:15;18.45;;;8.85;;
45322;SDS011;31382;50.200;8.674;2023-03-01T09:37:17;19.25;;;9.65;;
45322;SDS011;31382;50.200;8.674;2023-03-01T09:42:18;16.30;;;8.85;;
45322;SDS011;31382;50.200;8.674;2023-03-01T09:47:24;17.90;;;10.35;;
45322;SDS011;31382;50.200;8.674;2023-03-01T09:57:49;18.88;;;9.88;;
45322;SDS011;31382;50.200;8.674;2023-03-01T10:14:05;16.05;;;9.35;;
45322;SDS011;31382;50.200;8.674;2023-03-01T10:19:38;17.13;;;9.80;;
45322;SDS011;31382;50.200;8.674;2023-03-01T10:24:42;15.48;;;9.13;;
45322;SDS011;31382;50.200;8.674;2023-03-01T10:35:25;15.45;;;9.73;;
45322;SDS011;31382;50.200;8.674;2023-03-01T10:40:30;19.30;;;9.98;;
45322;SDS011;31382;50.200;8.674;2023-03-01T10:45:34;17.35;;;9.52;;
45322;SDS011;31382;50.200;8.674;2023-03-01T10:50:37;18.30;;;10.48;;
45322;SDS011;31382;50.200;8.674;2023-03-01T10:55:42;16.70;;;9.82;;
45322;SDS011;31382;50.200;8.674;2023-03-01T11:00:45;16.13;;;9.98;;
45322;SDS011;31382;50.200;8.674;2023-03-01T11:06:02;18.67;;;9.65;;
45322;SDS011;31382;50.200;8.674;2023-03-01T11:11:13;15.20;;;8.43;;
45322;SDS011;31382;50.200;8.674;2023-03-01T11:16:22;16.48;;;8.82;;
45322;SDS011;31382;50.200;8.674;2023-03-01T11:26:31;18.02;;;8.70;;
45322;SDS011;31382;50.200;8.674;2023-03-01T11:31:37;21.48;;;9.43;;
45322;SDS011;31382;50.200;8.674;2023-03-01T11:37:01;15.50;;;8.13;;
45322;SDS011;31382;50.200;8.674;2023-03-01T11:42:15;16.25;;;8.90;;
45322;SDS011;31382;50.200;8.674;2023-03-01T11:52:55;13.80;;;7.65;;
45322;SDS011;31382;50.200;8.674;2023-03-01T11:58:42;14.90;;;7.93;;
45322;SDS011;31382;50.200;8.674;2023-03-01T12:04:00;13.90;;;7.97;;
45322;SDS011;31382;50.200;8.674;2023-03-01T12:14:30;14.10;;;8.75;;
45322;SDS011;31382;50.200;8.674;2023-03-01T12:24:58;11.15;;;6.32;;
45322;SDS011;31382;50.200;8.674;2023-03-01T12:41:21;10.30;;;5.93;;
45322;SDS011;31382;50.200;8.674;2023-03-01T12:52:23;11.50;;;7.72;;
45322;SDS011;31382;50.200;8.674;2023-03-01T12:57:38;11.57;;;7.33;;
45322;SDS011;31382;50.200;8.674;2023-03-01T13:13:34;9.45;;;5.85;;
45322;SDS011;31382;50.200;8.674;2023-03-01T13:18:36;15.70;;;6.35;;
45322;SDS011;31382;50.200;8.674;2023-03-01T13:23:38;11.90;;;6.32;;
45322;SDS011;31382;50.200;8.674;2023-03-01T13:28:45;17.52;;;6.82;;
45322;SDS011;31382;50.200;8.674;2023-03-01T13:34:00;10.45;;;6.53;;
45322;SDS011;31382;50.200;8.674;2023-03-01T13:44:33;9.88;;;5.40;;
45322;SDS011;31382;50.200;8.674;2023-03-01T13:49:47;10.88;;;6.43;;
45322;SDS011;31382;50.200;8.674;2023-03-01T13:54:55;9.50;;;5.95;;
45322;SDS011;31382;50.200;8.674;2023-03-01T13:59:57;13.70;;;6.95;;
45322;SDS011;31382;50.200;8.674;2023-03-01T14:04:59;10.27;;;6.45;;
45322;SDS011;31382;50.200;8.674;2023-03-01T14:10:02;8.38;;;5.25;;
45322;SDS011;31382;50.200;8.674;2023-03-01T14:20:43;11.10;;;5.97;;
45322;SDS011;31382;50.200;8.674;2023-03-01T14:25:53;13.43;;;6.22;;
45322;SDS011;31382;50.200;8.674;2023-03-01T14:30:58;14.88;;;6.30;;
45322;SDS011;31382;50.200;8.674;2023-03-01T14:36:04;11.65;;;6.22;;
45322;SDS011;31382;50.200;8.674;2023-03-01T14:46:24;10.75;;;6.47;;
45322;SDS011;31382;50.200;8.674;2023-03-01T14:51:34;10.43;;;5.72;;
45322;SDS011;31382;50.200;8.674;2023-03-01T14:56:43;10.00;;;6.45;;
45322;SDS011;31382;50.200;8.674;2023-03-01T15:01:45;12.32;;;6.43;;
45322;SDS011;31382;50.200;8.674;2023-03-01T15:06:54;10.40;;;6.28;;
45322;SDS011;31382;50.200;8.674;2023-03-01T15:17:48;12.52;;;7.03;;
45322;SDS011;31382;50.200;8.674;2023-03-01T15:22:54;9.32;;;5.10;;
45322;SDS011;31382;50.200;8.674;2023-03-01T15:27:56;10.35;;;5.45;;
45322;SDS011;31382;50.200;8.674;2023-03-01T15:38:34;13.07;;;6.53;;
45322;SDS011;31382;50.200;8.674;2023-03-01T15:43:45;9.85;;;5.75;;
45322;SDS011;31382;50.200;8.674;2023-03-01T15:48:47;10.88;;;6.60;;
45322;SDS011;31382;50.200;8.674;2023-03-01T15:53:53;8.52;;;5.28;;
45322;SDS011;31382;50.200;8.674;2023-03-01T15:58:58;12.02;;;6.47;;
45322;SDS011;31382;50.200;8.674;2023-03-01T16:04:01;10.52;;;5.68;;
45322;SDS011;31382;50.200;8.674;2023-03-01T16:09:02;9.32;;;5.40;;
45322;SDS011;31382;50.200;8.674;2023-03-01T16:14:04;14.25;;;6.25;;
45322;SDS011;31382;50.200;8.674;2023-03-01T16:19:05;12.68;;;5.82;;
45322;SDS011;31382;50.200;8.674;2023-03-01T16:24:07;9.50;;;5.60;;
45322;SDS011;31382;50.200;8.674;2023-03-01T16:29:08;9.38;;;5.75;;
45322;SDS011;31382;50.200;8.674;2023-03-01T16:34:10;9.25;;;5.60;;
45322;SDS011;31382;50.200;8.674;2023-03-01T16:39:11;9.85;;;6.10;;
45322;SDS011;31382;50.200;8.674;2023-03-01T16:44:13;16.38;;;5.35;;
45322;SDS011;31382;50.200;8.674;2023-03-01T16:49:16;13.77;;;6.68;;
45322;SDS011;31382;50.200;8.674;2023-03-01T16:54:17;9.07;;;5.55;;
45322;SDS011;31382;50.200;8.674;2023-03-01T16:59:19;12.73;;;6.18;;
45322;SDS011;31382;50.200;8.674;2023-03-01T17:04:20;12.40;;;5.65;;
45322;SDS011;31382;50.200;8.674;2023-03-01T17:09:22;11.70;;;5.72;;
45322;SDS011;31382;50.200;8.674;2023-03-01T17:14:24;7.95;;;5.35;;
45322;SDS011;31382;50.200;8.674;2023-03-01T17:19:25;10.95;;;5.68;;
45322;SDS011;31382;50.200;8.674;2023-03-01T17:24:26;13.38;;;6.35;;
45322;SDS011;31382;50.200;8.674;2023-03-01T17:29:28;11.10;;;6.18;;
45322;SDS011;31382;50.200;8.674;2023-03-01T17:34:30;12.93;;;5.78;;
45322;SDS011;31382;50.200;8.674;2023-03-01T17:39:33;12.77;;;6.00;;
45322;SDS011;31382;50.200;8.674;2023-03-01T17:44:37;13.20;;;6.13;;
45322;SDS011;31382;50.200;8.674;2023-03-01T17:49:39;11.00;;;6.43;;
45322;SDS011;31382;50.200;8.674;2023-03-01T17:54:40;13.32;;;7.07;;
45322;SDS011;31382;50.200;8.674;2023-03-01T17:59:41;26.33;;;11.73;;
45322;SDS011;31382;50.200;8.674;2023-03-01T18:04:43;16.30;;;7.88;;
45322;SDS011;31382;50.200;8.674;2023-03-01T18:09:44;13.90;;;6.70;;
45322;SDS011;31382;50.200;8.674;2023-03-01T18:14:46;12.88;;;6.55;;
45322;SDS011;31382;50.200;8.674;2023-03-01T18:19:53;12.70;;;7.18;;
45322;SDS011;31382;50.200;8.674;2023-03-01T18:24:56;15.00;;;6.55;;
45322;SDS011;31382;50.200;8.674;2023-03-01T18:29:58;14.63;;;7.22;;
45322;SDS011;31382;50.200;8.674;2023-03-01T18:34:59;17.45;;;6.80;;
45322;SDS011;31382;50.200;8.674;2023-03-01T18:40:01;13.40;;;6.57;;
45322;SDS011;31382;50.200;8.674;2023-03-01T18:45:03;14.15;;;6.38;;
45322;SDS011;31382;50.200;8.674;2023-03-01T18:50:04;11.27;;;5.80;;
45322;SDS011;31382;50.200;8.674;2023-03-01T18:55:06;11.52;;;6.15;;
45322;SDS011;31382;50.200;8.674;2023-03-01T19:00:08;14.05;;;6.40;;
45322;SDS011;31382;50.200;8.674;2023-03-01T19:05:10;11.85;;;6.10;;
45322;SDS011;31382;50.200;8.674;2023-03-01T19:10:12;13.57;;;5.88;;
45322;SDS011;31382;50.200;8.674;2023-03-01T19:15:13;12.13;;;6.38;;
45322;SDS011;31382;50.200;8.674;2023-03-01T19:20:16;12.30;;;6.80;;
45322;SDS011;31382;50.200;8.674;2023-03-01T19:25:17;12.60;;;6.22;;
45322;SDS011;31382;50.200;8.674;2023-03-01T19:30:19;13.60;;;6.72;;
45322;SDS011;31382;50.200;8.674;2023-03-01T19:35:20;13.82;;;7.75;;
45322;SDS011;31382;50.200;8.674;2023-03-01T19:40:23;14.38;;;7.35;;
45322;SDS011;31382;50.200;8.674;2023-03-01T19:45:24;12.43;;;7.30;;
45322;SDS011;31382;50.200;8.674;2023-03-01T19:50:33;13.00;;;6.47;;
45322;SDS011;31382;50.200;8.674;2023-03-01T19:55:35;13.35;;;6.85;;
45322;SDS011;31382;50.200;8.674;2023-03-01T20:00:38;13.40;;;6.57;;
45322;SDS011;31382;50.200;8.674;2023-03-01T20:05:40;16.00;;;6.85;;
45322;SDS011;31382;50.200;8.674;2023-03-01T20:10:43;14.85;;;7.18;;
45322;SDS011;31382;50.200;8.674;2023-03-01T20:15:45;15.98;;;7.95;;
45322;SDS011;31382;50.200;8.674;2023-03-01T20:20:47;18.20;;;7.65;;
45322;SDS011;31382;50.200;8.674;2023-03-01T20:25:50;15.95;;;7.80;;
45322;SDS011;31382;50.200;8.674;2023-03-01T20:30:51;14.18;;;6.47;;
45322;SDS011;31382;50.200;8.674;2023-03-01T20:35:53;13.00;;;7.35;;
45322;SDS011;31382;50.200;8.674;2023-03-01T20:40:56;16.23;;;7.97;;
45322;SDS011;31382;50.200;8.674;2023-03-01T20:46:04;12.20;;;7.40;;
45322;SDS011;31382;50.200;8.674;2023-03-01T20:51:07;15.35;;;7.53;;
45322;SDS011;31382;50.200;8.674;2023-03-01T20:56:10;15.20;;;7.45;;
45322;SDS011;31382;50.200;8.674;2023-03-01T21:01:14;18.30;;;8.25;;
45322;SDS011;31382;50.200;8.674;2023-03-01T21:06:18;15.98;;;7.03;;
45322;SDS011;31382;50.200;8.674;2023-03-01T21:11:20;12.50;;;6.85;;
45322;SDS011;31382;50.200;8.674;2023-03-01T21:16:25;15.20;;;8.18;;
45322;SDS011;31382;50.200;8.674;2023-03-01T21:21:26;13.75;;;7.45;;
45322;SDS011;31382;50.200;8.674;2023-03-01T21:26:28;15.07;;;7.75;;
45322;SDS011;31382;50.200;8.674;2023-03-01T21:31:31;15.32;;;6.97;;
45322;SDS011;31382;50.200;8.674;2023-03-01T21:36:35;12.43;;;6.65;;
45322;SDS011;31382;50.200;8.674;2023-03-01T21:41:37;16.27;;;6.90;;
45322;SDS011;31382;50.200;8.674;2023-03-01T21:46:38;16.50;;;7.00;;
45322;SDS011;31382;50.200;8.674;2023-03-01T21:51:40;12.82;;;6.43;;
45322;SDS011;31382;50.200;8.674;2023-03-01T21:56:41;14.00;;;6.70;;
45322;SDS011;31382;50.200;8.674;2023-03-01T22:01:44;13.60;;;7.05;;
45322;SDS011;31382;50.200;8.674;2023-03-01T22:06:46;15.27;;;7.07;;
45322;SDS011;31382;50.200;8.674;2023-03-01T22:11:49;12.93;;;5.57;;
45322;SDS011;31382;50.200;8.674;2023-03-01T22:16:52;14.52;;;6.63;;
45322;SDS011;31382;50.200;8.674;2023-03-01T22:21:54;14.18;;;6.95;;
45322;SDS011;31382;50.200;8.674;2023-03-01T22:26:56;13.57;;;6.35;;
45322;SDS011;31382;50.200;8.674;2023-03-01T22:31:57;12.02;;;5.72;;
45322;SDS011;31382;50.200;8.674;2023-03-01T22:36:59;14.00;;;6.88;;
45322;SDS011;31382;50.200;8.674;2023-03-01T22:42:00;23.08;;;6.88;;
45322;SDS011;31382;50.200;8.674;2023-03-01T22:47:02;15.32;;;6.07;;
45322;SDS011;31382;50.200;8.674;2023-03-01T22:52:03;14.27;;;7.53;;
45322;SDS011;31382;50.200;8.674;2023-03-01T22:57:05;13.35;;;6.68;;
45322;SDS011;31382;50.200;8.674;2023-03-01T23:02:06;14.07;;;6.97;;
45322;SDS011;31382;50.200;8.674;2023-03-01T23:07:08;13.02;;;6.70;;
45322;SDS011;31382;50.200;8.674;2023-03-01T23:12:09;16.75;;;7.80;;
45322;SDS011;31382;50.200;8.674;2023-03-01T23:17:11;16.00;;;7.22;;
45322;SDS011;31382;50.200;8.674;2023-03-01T23:22:13;15.05;;;6.70;;
45322;SDS011;31382;50.200;8.674;2023-03-01T23:27:14;15.82;;;7.38;;
45322;SDS011;31382;50.200;8.674;2023-03-01T23:32:18;13.82;;;7.03;;
45322;SDS011;31382;50.200;8.674;2023-03-01T23:37:20;16.42;;;6.93;;
45322;SDS011;31382;50.200;8.674;2023-03-01T23:42:21;16.20;;;7.53;;
45322;SDS011;31382;50.200;8.674;2023-03-01T23:47:23;16.38;;;6.15;;
45322;SDS011;31382;50.200;8.674;2023-03-01T23:52:24;13.93;;;6.18;;
45322;SDS011;31382;50.200;8.674;2023-03-01T23:57:25;17.63;;;7.85;;
